createdAt,value
2019-04-22T00:02:12.930Z,100407.73
2019-04-22T00:04:55.103Z,100398.00
2019-04-22T00:07:37.243Z,100394.83
2019-04-22T00:10:13.453Z,100398.42
2019-04-22T00:12:45.389Z,100394.83
2019-04-22T00:15:10.179Z,100388.48
2019-04-22T00:20:14.456Z,100387.84
2019-04-22T00:22:46.476Z,100388.20
2019-04-22T00:25:19.866Z,100382.00
2019-04-22T00:33:07.827Z,100385.64
2019-04-22T00:35:36.684Z,100387.99
2019-04-22T00:38:17.416Z,100378.80
2019-04-22T00:40:44.704Z,100379.91
2019-04-22T00:43:13.662Z,100373.13
2019-04-22T00:45:54.317Z,100364.16
2019-04-22T00:48:25.473Z,100375.98
2019-04-22T00:58:36.528Z,100367.33
2019-04-22T01:01:15.356Z,100357.39
2019-04-22T01:03:50.450Z,100361.09
2019-04-22T01:06:18.340Z,100356.49
2019-04-22T01:08:53.727Z,100350.52
2019-04-22T01:11:17.253Z,100356.23
2019-04-22T01:13:44.294Z,100349.66
2019-04-22T01:16:20.355Z,100346.45
2019-04-22T01:18:50.597Z,100343.23
2019-04-22T01:23:47.688Z,100342.37
2019-04-22T01:26:22.873Z,100337.19
2019-04-22T01:28:50.078Z,100337.14
2019-04-22T01:31:18.143Z,100335.33
2019-04-22T01:33:49.769Z,100334.89
2019-04-22T01:36:35.289Z,100325.70
2019-04-22T01:39:09.353Z,100328.41
2019-04-22T01:41:48.870Z,100321.64
2019-04-22T01:46:50.864Z,100323.12
2019-04-22T01:49:15.858Z,100323.64
2019-04-22T01:52:01.858Z,100325.96
2019-04-22T01:54:22.231Z,100318.37
2019-04-22T01:59:15.677Z,100313.13
2019-04-22T02:06:57.769Z,100306.38
2019-04-22T02:09:31.365Z,100305.73
2019-04-22T02:12:00.572Z,100301.27
2019-04-22T02:14:33.081Z,100299.84
2019-04-22T02:17:01.319Z,100301.75
2019-04-22T02:19:38.675Z,100298.89
2019-04-22T02:21:59.637Z,100305.56
2019-04-22T02:24:39.925Z,100300.16
2019-04-22T02:27:14.098Z,100300.88
2019-04-22T02:32:21.277Z,100297.16
2019-04-22T02:34:50.368Z,100293.48
2019-04-22T02:39:52.832Z,100296.42
2019-04-22T02:42:14.456Z,100301.83
2019-04-22T02:44:46.593Z,100292.33
2019-04-22T02:52:25.585Z,100292.09
2019-04-22T02:55:02.757Z,100290.12
2019-04-22T02:57:29.773Z,100287.36
2019-04-22T03:00:18.381Z,100276.59
2019-04-22T03:02:48.818Z,100278.55
2019-04-22T03:05:07.504Z,100278.16
2019-04-22T03:07:50.570Z,100273.72
2019-04-22T03:12:29.387Z,100272.38
2019-04-22T03:15:01.402Z,100276.92
2019-04-22T03:20:17.832Z,100268.50
2019-04-22T03:22:40.859Z,100263.95
2019-04-22T03:25:45.514Z,100257.98
2019-04-22T03:27:40.133Z,100258.74
2019-04-22T03:30:42.006Z,100256.95
2019-04-22T03:37:56.203Z,100244.78
2019-04-22T03:40:30.374Z,100248.29
2019-04-22T03:50:25.628Z,100238.88
2019-04-22T03:53:05.857Z,100238.22
2019-04-22T03:55:43.295Z,100227.67
2019-04-22T04:00:35.967Z,100229.77
2019-04-22T04:03:05.918Z,100227.84
2019-04-22T04:10:40.109Z,100230.04
2019-04-22T04:13:08.272Z,100222.69
2019-04-22T04:20:44.748Z,100215.56
2019-04-22T04:23:24.403Z,100216.34
2019-04-22T04:30:48.713Z,100206.94
2019-04-22T04:38:23.189Z,100201.61
2019-04-22T04:43:33.336Z,100203.64
2019-04-22T04:46:02.331Z,100203.62
2019-04-22T04:48:36.966Z,100193.14
2019-04-22T04:51:11.842Z,100193.91
2019-04-22T04:53:29.187Z,100192.16
2019-04-22T04:56:06.455Z,100190.52
2019-04-22T04:58:47.611Z,100198.78
2019-04-22T05:01:08.005Z,100192.28
2019-04-22T05:06:12.593Z,100199.04
2019-04-22T05:09:01.437Z,100194.52
2019-04-22T05:13:49.667Z,100200.36
2019-04-22T05:16:25.060Z,100198.45
2019-04-22T05:18:48.178Z,100188.83
2019-04-22T05:21:14.550Z,100190.45
2019-04-22T05:23:48.950Z,100189.11
2019-04-22T05:28:48.149Z,100190.20
2019-04-22T05:31:15.715Z,100184.70
2019-04-22T05:33:51.479Z,100184.13
2019-04-22T05:36:25.898Z,100179.66
2019-04-22T05:41:17.779Z,100177.50
2019-04-22T05:43:49.836Z,100178.73
2019-04-22T05:46:22.441Z,100179.75
2019-04-22T05:48:55.392Z,100178.37
2019-04-22T05:51:25.735Z,100177.98
2019-04-22T05:53:59.009Z,100175.65
2019-04-22T05:56:32.830Z,100171.31
2019-04-22T05:58:58.261Z,100176.11
2019-04-22T06:01:38.934Z,100172.37
2019-04-22T06:09:12.545Z,100169.34
2019-04-22T06:11:33.412Z,100177.45
2019-04-22T06:14:12.311Z,100175.86
2019-04-22T06:16:53.553Z,100171.72
2019-04-22T06:22:09.622Z,100180.02
2019-04-22T06:24:23.600Z,100171.69
2019-04-22T06:29:22.184Z,100168.05
2019-04-22T06:32:23.045Z,100170.20
2019-04-22T06:34:30.141Z,100164.58
2019-04-22T06:36:59.708Z,100160.14
2019-04-22T06:39:34.242Z,100166.84
2019-04-22T06:42:06.917Z,100170.34
2019-04-22T06:44:29.777Z,100170.89
2019-04-22T06:47:03.394Z,100173.38
2019-04-22T06:49:35.598Z,100168.53
2019-04-22T06:52:12.924Z,100163.47
2019-04-22T06:54:32.952Z,100161.55
2019-04-22T06:57:06.195Z,100158.23
2019-04-22T06:59:37.768Z,100156.92
2019-04-22T07:02:11.670Z,100157.20
2019-04-22T07:04:41.861Z,100156.69
2019-04-22T07:07:12.218Z,100161.52
2019-04-22T07:12:20.449Z,100152.66
2019-04-22T07:14:47.484Z,100156.68
2019-04-22T07:17:15.403Z,100158.91
2019-04-22T07:19:44.506Z,100153.33
2019-04-22T07:27:22.145Z,100153.23
2019-04-22T07:29:55.762Z,100152.47
2019-04-22T07:32:48.352Z,100151.88
2019-04-22T07:39:50.120Z,100145.28
2019-04-22T07:42:32.894Z,100138.09
2019-04-22T07:47:32.380Z,100142.47
2019-04-22T07:50:05.162Z,100139.23
2019-04-22T07:52:35.297Z,100136.42
2019-04-22T07:55:02.145Z,100128.39
2019-04-22T08:00:10.930Z,100124.68
2019-04-22T08:02:44.285Z,100117.02
2019-04-22T08:05:26.358Z,100116.58
2019-04-22T08:07:46.756Z,100108.94
2019-04-22T08:12:47.382Z,100114.14
2019-04-22T08:15:12.463Z,100107.08
2019-04-22T08:17:59.869Z,100102.98
2019-04-22T08:22:53.624Z,100097.21
2019-04-22T08:25:19.588Z,100100.28
2019-04-22T08:27:50.827Z,100098.16
2019-04-22T08:30:28.338Z,100090.07
2019-04-22T08:32:53.129Z,100088.02
2019-04-22T08:35:29.596Z,100088.56
2019-04-22T08:40:37.462Z,100082.00
2019-04-22T08:43:07.211Z,100076.30
2019-04-22T08:45:38.772Z,100078.39
2019-04-22T08:48:01.750Z,100080.45
2019-04-22T08:50:38.891Z,100073.34
2019-04-22T08:53:14.296Z,100074.42
2019-04-22T08:55:46.462Z,100071.47
2019-04-22T08:58:28.039Z,100063.13
2019-04-22T09:03:24.034Z,100055.77
2019-04-22T09:05:55.344Z,100051.06
2019-04-22T09:08:20.002Z,100048.69
2019-04-22T09:10:48.838Z,100046.12
2019-04-22T09:13:31.529Z,100040.92
2019-04-22T09:15:49.564Z,100040.56
2019-04-22T09:18:21.653Z,100038.34
2019-04-22T09:20:58.829Z,100032.95
2019-04-22T09:23:32.337Z,100037.81
2019-04-22T09:25:56.968Z,100032.41
2019-04-22T09:28:34.667Z,100028.83
2019-04-22T09:31:01.348Z,100028.62
2019-04-22T09:33:32.234Z,100028.83
2019-04-22T09:36:12.879Z,100019.01
2019-04-22T09:38:38.160Z,100015.02
2019-04-22T09:41:10.120Z,100014.05
2019-04-22T09:43:43.397Z,100007.70
2019-04-22T09:46:06.260Z,100009.99
2019-04-22T09:48:43.837Z,100012.64
2019-04-22T09:51:12.042Z,99996.28
2019-04-22T09:53:47.076Z,99994.35
2019-04-22T09:56:20.800Z,99996.05
2019-04-22T09:58:44.625Z,99988.02
2019-04-22T10:01:24.593Z,99980.81
2019-04-22T10:03:56.498Z,99979.85
2019-04-22T10:06:35.567Z,99966.39
2019-04-22T10:10:01.456Z,99970.27
2019-04-22T10:11:26.846Z,99973.35
2019-04-22T10:16:35.427Z,99951.78
2019-04-22T10:19:00.999Z,99948.59
2019-04-22T10:21:35.541Z,99943.23
2019-04-22T10:26:33.424Z,99937.83
2019-04-22T10:29:08.772Z,99939.76
2019-04-22T10:31:38.213Z,99944.50
2019-04-22T10:33:53.561Z,99931.36
2019-04-22T10:36:10.711Z,99922.47
2019-04-22T10:38:40.320Z,99917.52
2019-04-22T10:41:10.471Z,99919.79
2019-04-22T10:43:41.212Z,99921.42
2019-04-22T10:46:12.145Z,99920.90
2019-04-22T10:48:42.115Z,99926.45
2019-04-22T10:51:12.714Z,99904.23
2019-04-22T10:53:43.703Z,99904.14
2019-04-22T10:56:14.740Z,99899.95
2019-04-22T10:58:44.751Z,99893.59
2019-04-22T11:01:15.732Z,99891.95
2019-04-22T11:03:45.730Z,99883.48
2019-04-22T11:06:15.393Z,99878.55
2019-04-22T11:08:52.394Z,99881.31
2019-04-22T11:11:30.185Z,99876.25
2019-04-22T11:13:47.632Z,99872.08
2019-04-22T11:16:17.502Z,99867.72
2019-04-22T11:18:47.587Z,99857.23
2019-04-22T11:21:17.940Z,99853.06
2019-04-22T11:23:47.633Z,99848.99
2019-04-22T11:26:17.753Z,99848.09
2019-04-22T11:28:47.623Z,99848.09
2019-04-22T11:31:18.550Z,99845.42
2019-04-22T11:33:48.412Z,99835.11
2019-04-22T11:36:18.146Z,99833.22
2019-04-22T11:38:53.016Z,99821.02
2019-04-22T11:41:19.505Z,99828.58
2019-04-22T11:43:49.497Z,99833.34
2019-04-22T11:46:19.291Z,99825.98
2019-04-22T11:48:49.912Z,99821.80
2019-04-22T11:51:20.040Z,99811.34
2019-04-22T11:53:49.619Z,99800.87
2019-04-22T11:56:19.209Z,99801.36
2019-04-22T11:58:48.954Z,99791.97
2019-04-22T12:01:19.180Z,99806.77
2019-04-22T12:03:49.559Z,99795.52
2019-04-22T12:06:19.832Z,99795.53
2019-04-22T12:08:50.034Z,99789.13
2019-04-22T12:11:20.645Z,99781.17
2019-04-22T12:13:51.676Z,99777.09
2019-04-22T12:16:21.468Z,99760.64
2019-04-22T12:18:51.267Z,99755.48
2019-04-22T12:21:21.431Z,99758.95
2019-04-22T12:23:51.044Z,99746.92
2019-04-22T12:26:22.910Z,99731.54
2019-04-22T12:28:53.239Z,99734.69
2019-04-22T12:31:23.789Z,99733.93
2019-04-22T12:33:53.440Z,99732.08
2019-04-22T12:36:24.442Z,99729.27
2019-04-22T12:38:55.623Z,99715.00
2019-04-22T12:41:25.923Z,99713.14
2019-04-22T12:43:55.700Z,99710.96
2019-04-22T12:46:26.080Z,99700.30
2019-04-22T12:48:56.249Z,99696.09
2019-04-22T12:51:27.114Z,99704.41
2019-04-22T12:53:57.268Z,99699.11
2019-04-22T12:56:27.814Z,99692.36
2019-04-22T12:58:57.670Z,99687.50
2019-04-22T13:01:27.202Z,99677.77
2019-04-22T13:04:03.173Z,99683.42
2019-04-22T13:06:30.034Z,99678.27
2019-04-22T13:09:00.220Z,99674.98
2019-04-22T13:11:32.803Z,99671.38
2019-04-22T13:14:01.299Z,99653.95
2019-04-22T13:16:31.280Z,99657.24
2019-04-22T13:19:05.637Z,99654.14
2019-04-22T13:21:33.068Z,99643.13
2019-04-22T13:24:02.824Z,99641.57
2019-04-22T13:26:33.735Z,99638.25
2019-04-22T13:29:03.383Z,99640.14
2019-04-22T13:31:33.142Z,99641.72
2019-04-22T13:34:04.057Z,99629.32
2019-04-22T13:36:34.638Z,99625.07
2019-04-22T13:39:08.942Z,99631.96
2019-04-22T13:41:46.140Z,99629.32
2019-04-22T13:44:09.941Z,99626.48
2019-04-22T13:46:59.119Z,99626.80
2019-04-22T13:49:47.792Z,99615.48
2019-04-22T13:52:20.690Z,99617.21
2019-04-22T13:57:07.967Z,99609.03
2019-04-22T13:59:22.991Z,99608.11
2019-04-22T14:01:56.485Z,99598.20
2019-04-22T14:04:30.505Z,99592.55
2019-04-22T14:07:00.879Z,99594.27
2019-04-22T14:09:30.639Z,99594.27
2019-04-22T14:12:05.194Z,99583.25
2019-04-22T14:14:31.460Z,99585.46
2019-04-22T14:17:01.018Z,99581.53
2019-04-22T14:19:32.045Z,99574.77
2019-04-22T14:22:02.010Z,99568.61
2019-04-22T14:24:31.684Z,99563.59
2019-04-22T14:27:17.481Z,99559.96
2019-04-22T14:29:33.556Z,99560.77
2019-04-22T14:32:12.781Z,99558.86
2019-04-22T14:34:34.525Z,99549.41
2019-04-22T14:37:05.495Z,99531.52
2019-04-22T14:39:35.801Z,99546.89
2019-04-22T14:44:23.281Z,99544.21
2019-04-22T14:47:34.706Z,99541.39
2019-04-22T14:49:58.965Z,99539.33
2019-04-22T14:52:33.148Z,99526.92
2019-04-22T14:54:57.755Z,99519.53
2019-04-22T14:57:19.307Z,99527.06
2019-04-22T14:59:50.087Z,99514.33
2019-04-22T15:02:19.782Z,99513.09
2019-04-22T15:04:50.093Z,99511.52
2019-04-22T15:07:20.990Z,99507.73
2019-04-22T15:09:52.118Z,99494.86
2019-04-22T15:12:31.208Z,99502.71
2019-04-22T15:14:53.474Z,99500.03
2019-04-22T15:17:34.910Z,99495.79
2019-04-22T15:20:08.174Z,99495.79
2019-04-22T15:22:38.842Z,99495.79
2019-04-22T15:25:08.581Z,99492.65
2019-04-22T15:27:39.446Z,99478.18
2019-04-22T15:30:09.744Z,99481.97
2019-04-22T15:32:41.154Z,99480.70
2019-04-22T15:35:11.468Z,99478.02
2019-04-22T15:37:41.421Z,99483.34
2019-04-22T15:40:13.066Z,99483.52
2019-04-22T15:42:43.749Z,99478.81
2019-04-22T15:45:15.161Z,99480.06
2019-04-22T15:47:46.168Z,99470.34
2019-04-22T15:50:16.365Z,99452.12
2019-04-22T15:52:51.164Z,99470.97
2019-04-22T15:55:18.593Z,99474.59
2019-04-22T15:57:49.718Z,99467.66
2019-04-22T16:00:31.944Z,99466.25
2019-04-22T16:02:52.020Z,99466.11
2019-04-22T16:05:22.496Z,99464.98
2019-04-22T16:07:52.969Z,99462.59
2019-04-22T16:10:23.955Z,99450.67
2019-04-22T16:13:03.274Z,99457.09
2019-04-22T16:15:24.811Z,99450.66
2019-04-22T16:17:55.020Z,99453.01
2019-04-22T16:20:25.879Z,99452.98
2019-04-22T16:23:15.181Z,99453.31
2019-04-22T16:25:51.282Z,99448.76
2019-04-22T16:28:21.603Z,99450.78
2019-04-22T16:30:51.299Z,99443.58
2019-04-22T16:33:21.671Z,99444.05
2019-04-22T16:35:52.922Z,99443.44
2019-04-22T16:38:22.769Z,99437.48
2019-04-22T16:40:52.749Z,99435.28
2019-04-22T16:43:22.496Z,99435.78
2019-04-22T16:45:53.652Z,99436.39
2019-04-22T16:48:23.403Z,99431.34
2019-04-22T16:50:54.562Z,99427.22
2019-04-22T16:53:25.269Z,99429.44
2019-04-22T16:55:55.181Z,99423.44
2019-04-22T16:58:25.130Z,99421.73
2019-04-22T17:00:54.875Z,99426.95
2019-04-22T17:03:36.530Z,99424.31
2019-04-22T17:06:07.724Z,99421.48
2019-04-22T17:08:37.230Z,99424.76
2019-04-22T17:11:07.505Z,99423.48
2019-04-22T17:13:38.527Z,99428.34
2019-04-22T17:16:09.863Z,99425.83
2019-04-22T17:18:39.617Z,99417.34
2019-04-22T17:21:11.012Z,99415.73
2019-04-22T17:23:41.365Z,99418.84
2019-04-22T17:26:12.442Z,99417.86
2019-04-22T17:28:43.718Z,99413.89
2019-04-22T17:31:13.534Z,99413.44
2019-04-22T17:33:44.568Z,99412.23
2019-04-22T17:36:16.218Z,99414.48
2019-04-22T17:38:56.446Z,99414.99
2019-04-22T17:41:33.955Z,99411.20
2019-04-22T17:44:15.356Z,99411.98
2019-04-22T17:46:40.630Z,99409.00
2019-04-22T17:49:37.239Z,99412.45
2019-04-22T17:52:24.759Z,99416.52
2019-04-22T17:54:50.560Z,99415.59
2019-04-22T17:57:24.125Z,99416.08
2019-04-22T18:00:06.985Z,99409.34
2019-04-22T18:02:24.970Z,99414.20
2019-04-22T18:04:45.732Z,99411.69
2019-04-22T18:07:44.474Z,99415.45
2019-04-22T18:10:24.325Z,99420.79
2019-04-22T18:12:40.064Z,99414.80
2019-04-22T18:15:07.142Z,99421.94
2019-04-22T18:17:35.527Z,99426.57
2019-04-22T18:19:59.025Z,99432.52
2019-04-22T18:22:24.512Z,99433.16
2019-04-22T18:25:02.226Z,99427.35
2019-04-22T18:30:05.149Z,99426.65
2019-04-22T18:32:42.508Z,99440.54
2019-04-22T18:35:11.508Z,99434.55
2019-04-22T18:37:42.477Z,99444.30
2019-04-22T18:40:15.046Z,99441.72
2019-04-22T18:42:52.558Z,99441.31
2019-04-22T18:45:35.568Z,99446.80
2019-04-22T18:47:44.279Z,99445.17
2019-04-22T18:50:26.378Z,99446.51
2019-04-22T18:53:03.698Z,99447.20
2019-04-22T18:55:31.991Z,99451.23
2019-04-22T18:58:09.757Z,99453.83
2019-04-22T19:00:41.732Z,99453.64
2019-04-22T19:03:16.429Z,99459.01
2019-04-22T19:06:09.553Z,99460.55
2019-04-22T19:08:50.521Z,99460.64
2019-04-22T19:11:12.463Z,99465.14
2019-04-22T19:16:25.794Z,99464.22
2019-04-22T19:19:17.208Z,99465.42
2019-04-22T19:21:12.069Z,99460.45
2019-04-22T19:23:45.239Z,99469.66
2019-04-22T19:26:25.517Z,99467.39
2019-04-22T19:28:45.196Z,99464.35
2019-04-22T19:31:21.936Z,99472.09
2019-04-22T19:33:56.356Z,99474.98
2019-04-22T19:36:20.964Z,99479.11
2019-04-22T19:38:49.808Z,99475.26
2019-04-22T19:41:24.140Z,99480.16
2019-04-22T19:44:00.453Z,99488.47
2019-04-22T19:46:22.122Z,99480.00
2019-04-22T19:49:06.970Z,99486.91
2019-04-22T19:51:43.076Z,99481.20
2019-04-22T19:53:56.253Z,99476.93
2019-04-22T19:56:22.937Z,99488.02
2019-04-22T19:58:56.293Z,99486.34
2019-04-22T20:01:36.444Z,99490.63
2019-04-22T20:04:25.092Z,99484.92
2019-04-22T20:06:47.823Z,99484.45
2019-04-22T20:09:24.445Z,99477.33
2019-04-22T20:11:49.622Z,99475.83
2019-04-22T20:14:21.892Z,99484.10
2019-04-22T20:16:49.025Z,99478.41
2019-04-22T20:19:31.902Z,99475.91
2019-04-22T20:22:01.650Z,99472.23
2019-04-22T20:24:16.841Z,99474.47
2019-04-22T20:27:05.639Z,99474.35
2019-04-22T20:29:40.289Z,99469.03
2019-04-22T20:32:05.398Z,99477.01
2019-04-22T20:34:39.492Z,99475.28
2019-04-22T20:37:11.300Z,99472.51
2019-04-22T20:39:45.667Z,99464.78
2019-04-22T20:42:23.122Z,99464.80
2019-04-22T20:44:46.021Z,99450.89
2019-04-22T20:47:12.239Z,99455.90
2019-04-22T20:49:41.543Z,99454.31
2019-04-22T20:52:22.347Z,99452.35
2019-04-22T20:54:46.213Z,99457.36
2019-04-22T20:57:15.369Z,99449.00
2019-04-22T20:59:48.058Z,99455.20
2019-04-22T21:02:16.428Z,99454.44
2019-04-22T21:04:41.626Z,99450.08
2019-04-22T21:07:16.764Z,99444.32
2019-04-22T21:09:49.185Z,99450.72
2019-04-22T21:12:17.668Z,99449.76
2019-04-22T21:15:00.208Z,99444.63
2019-04-22T21:17:33.620Z,99450.63
2019-04-22T21:20:00.817Z,99437.52
2019-04-22T21:22:32.437Z,99440.73
2019-04-22T21:24:59.258Z,99435.41
2019-04-22T21:27:34.392Z,99434.83
2019-04-22T21:29:52.275Z,99422.92
2019-04-22T21:32:34.521Z,99432.45
2019-04-22T21:35:11.778Z,99422.13
2019-04-22T21:37:43.163Z,99430.52
2019-04-22T21:40:10.733Z,99422.95
2019-04-22T21:42:50.137Z,99415.22
2019-04-22T21:45:12.256Z,99419.81
2019-04-22T21:47:49.961Z,99417.84
2019-04-22T21:52:50.902Z,99418.31
2019-04-22T21:55:16.418Z,99413.36
2019-04-22T21:57:57.727Z,99416.77
2019-04-22T22:00:32.780Z,99416.18
2019-04-22T22:03:03.172Z,99412.23
2019-04-22T22:05:22.165Z,99417.22
2019-04-22T22:07:50.861Z,99407.89
2019-04-22T22:10:27.174Z,99401.36
2019-04-22T22:13:15.651Z,99402.14
2019-04-22T22:15:52.079Z,99408.51
2019-04-22T22:18:12.259Z,99397.80
2019-04-22T22:21:13.167Z,99399.02
2019-04-22T22:25:55.797Z,99388.31
2019-04-22T22:28:46.947Z,99386.30
2019-04-22T22:31:05.013Z,99376.37
2019-04-22T22:33:28.299Z,99376.40
2019-04-22T22:35:58.449Z,99365.49
2019-04-22T22:38:26.987Z,99369.86
2019-04-22T22:40:43.917Z,99365.71
2019-04-22T22:43:22.646Z,99374.66
2019-04-22T22:45:55.265Z,99371.29
2019-04-22T22:48:39.878Z,99374.88
2019-04-22T22:51:05.309Z,99370.89
2019-04-22T22:53:46.410Z,99367.72
2019-04-22T22:56:13.593Z,99372.88
2019-04-22T22:58:40.771Z,99365.95
2019-04-22T23:01:10.369Z,99356.22
2019-04-22T23:03:51.131Z,99368.33
2019-04-22T23:06:20.767Z,99362.19
2019-04-22T23:08:54.026Z,99362.98
2019-04-22T23:11:21.065Z,99365.37
2019-04-22T23:13:49.877Z,99357.83
2019-04-22T23:16:12.653Z,99351.48
2019-04-22T23:18:34.091Z,99350.70
2019-04-22T23:21:08.227Z,99342.96
2019-04-22T23:23:51.314Z,99343.95
2019-04-22T23:26:35.923Z,99335.03
2019-04-22T23:29:07.170Z,99344.16
2019-04-22T23:31:39.871Z,99329.48
2019-04-22T23:34:15.747Z,99324.11
2019-04-22T23:36:57.541Z,99325.69
2019-04-22T23:39:35.615Z,99320.93
2019-04-22T23:42:06.439Z,99321.92
2019-04-22T23:44:31.941Z,99319.74
2019-04-22T23:47:06.181Z,99314.95
2019-04-22T23:49:35.163Z,99315.55
2019-04-22T23:52:21.078Z,99316.77
2019-04-22T23:54:50.892Z,99309.61
2019-04-22T23:57:23.804Z,99310.98
2019-04-22T23:59:57.395Z,99315.34
